sensor_id;sensor_type;location;lat;lon;timestamp;P1;durP1;ratioP1;P2;durP2;ratioP2
28086;SDS011;15392;48.912;8.380;2023-03-14T00:00:06;0.10;;;0.10;;
28086;SDS011;15392;48.912;8.380;2023-03-14T00:02:35;0.13;;;0.10;;
28086;SDS011;15392;48.912;8.380;2023-03-14T00:05:02;0.20;;;0.10;;
28086;SDS011;15392;48.912;8.380;2023-03-14T00:07:32;0.13;;;0.10;;
28086;SDS011;15392;48.912;8.380;2023-03-14T00:10:07;0.20;;;0.20;;
28086;SDS011;15392;48.912;8.380;2023-03-14T00:12:36;0.10;;;0.10;;
28086;SDS011;15392;48.912;8.380;2023-03-14T00:15:02;0.13;;;0.10;;
28086;SDS011;15392;48.912;8.380;2023-03-14T00:17:29;0.10;;;0.10;;
28086;SDS011;15392;48.912;8.380;2023-03-14T00:19:59;0.38;;;0.10;;
28086;SDS011;15392;48.912;8.380;2023-03-14T00:22:35;0.10;;;0.10;;
28086;SDS011;15392;48.912;8.380;2023-03-14T00:25:03;1.42;;;0.10;;
28086;SDS011;15392;48.912;8.380;2023-03-14T00:27:33;0.15;;;0.15;;
28086;SDS011;15392;48.912;8.380;2023-03-14T00:29:59;0.40;;;0.28;;
28086;SDS011;15392;48.912;8.380;2023-03-14T00:32:25;0.20;;;0.10;;
28086;SDS011;15392;48.912;8.380;2023-03-14T00:34:51;0.10;;;0.10;;
28086;SDS011;15392;48.912;8.380;2023-03-14T00:37:17;0.20;;;0.00;;
28086;SDS011;15392;48.912;8.380;2023-03-14T00:39:43;0.00;;;0.00;;
28086;SDS011;15392;48.912;8.380;2023-03-14T00:42:09;0.10;;;0.10;;
28086;SDS011;15392;48.912;8.380;2023-03-14T00:44:35;0.10;;;0.10;;
28086;SDS011;15392;48.912;8.380;2023-03-14T00:47:04;0.05;;;0.00;;
28086;SDS011;15392;48.912;8.380;2023-03-14T00:49:30;0.10;;;0.10;;
28086;SDS011;15392;48.912;8.380;2023-03-14T00:51:56;0.10;;;0.10;;
28086;SDS011;15392;48.912;8.380;2023-03-14T00:54:22;0.28;;;0.00;;
28086;SDS011;15392;48.912;8.380;2023-03-14T00:56:47;0.55;;;0.10;;
28086;SDS011;15392;48.912;8.380;2023-03-14T00:59:13;0.10;;;0.10;;
28086;SDS011;15392;48.912;8.380;2023-03-14T01:01:44;0.20;;;0.00;;
28086;SDS011;15392;48.912;8.380;2023-03-14T01:04:10;0.03;;;0.03;;
28086;SDS011;15392;48.912;8.380;2023-03-14T01:06:36;0.10;;;0.10;;
28086;SDS011;15392;48.912;8.380;2023-03-14T01:09:02;0.10;;;0.10;;
28086;SDS011;15392;48.912;8.380;2023-03-14T01:11:29;0.15;;;0.10;;
28086;SDS011;15392;48.912;8.380;2023-03-14T01:13:58;0.10;;;0.10;;
28086;SDS011;15392;48.912;8.380;2023-03-14T01:16:25;0.10;;;0.10;;
28086;SDS011;15392;48.912;8.380;2023-03-14T01:18:53;0.08;;;0.03;;
28086;SDS011;15392;48.912;8.380;2023-03-14T01:21:26;0.30;;;0.20;;
28086;SDS011;15392;48.912;8.380;2023-03-14T01:23:55;0.10;;;0.10;;
28086;SDS011;15392;48.912;8.380;2023-03-14T01:26:23;0.10;;;0.10;;
28086;SDS011;15392;48.912;8.380;2023-03-14T01:28:52;0.10;;;0.10;;
28086;SDS011;15392;48.912;8.380;2023-03-14T01:31:19;0.10;;;0.10;;
28086;SDS011;15392;48.912;8.380;2023-03-14T01:33:45;0.20;;;0.10;;
28086;SDS011;15392;48.912;8.380;2023-03-14T01:36:11;0.10;;;0.10;;
28086;SDS011;15392;48.912;8.380;2023-03-14T01:38:38;1.10;;;0.10;;
28086;SDS011;15392;48.912;8.380;2023-03-14T01:41:05;0.10;;;0.10;;
28086;SDS011;15392;48.912;8.380;2023-03-14T01:43:39;0.20;;;0.10;;
28086;SDS011;15392;48.912;8.380;2023-03-14T01:48:31;0.10;;;0.10;;
28086;SDS011;15392;48.912;8.380;2023-03-14T01:51:06;0.10;;;0.10;;
28086;SDS011;15392;48.912;8.380;2023-03-14T01:53:39;0.10;;;0.10;;
28086;SDS011;15392;48.912;8.380;2023-03-14T01:56:09;0.10;;;0.10;;
28086;SDS011;15392;48.912;8.380;2023-03-14T01:58:38;0.20;;;0.20;;
28086;SDS011;15392;48.912;8.380;2023-03-14T02:01:07;0.10;;;0.10;;
28086;SDS011;15392;48.912;8.380;2023-03-14T02:03:36;0.10;;;0.10;;
28086;SDS011;15392;48.912;8.380;2023-03-14T02:06:11;0.05;;;0.05;;
28086;SDS011;15392;48.912;8.380;2023-03-14T02:08:39;0.20;;;0.20;;
28086;SDS011;15392;48.912;8.380;2023-03-14T02:11:09;0.10;;;0.10;;
28086;SDS011;15392;48.912;8.380;2023-03-14T02:13:34;0.10;;;0.10;;
28086;SDS011;15392;48.912;8.380;2023-03-14T02:16:00;0.25;;;0.10;;
28086;SDS011;15392;48.912;8.380;2023-03-14T02:18:26;0.13;;;0.13;;
28086;SDS011;15392;48.912;8.380;2023-03-14T02:20:53;0.10;;;0.10;;
28086;SDS011;15392;48.912;8.380;2023-03-14T02:26:34;0.20;;;0.20;;
28086;SDS011;15392;48.912;8.380;2023-03-14T02:29:08;0.10;;;0.10;;
28086;SDS011;15392;48.912;8.380;2023-03-14T02:31:34;0.10;;;0.10;;
28086;SDS011;15392;48.912;8.380;2023-03-14T02:34:01;0.10;;;0.08;;
28086;SDS011;15392;48.912;8.380;2023-03-14T02:36:28;0.20;;;0.10;;
28086;SDS011;15392;48.912;8.380;2023-03-14T02:44:31;0.20;;;0.20;;
28086;SDS011;15392;48.912;8.380;2023-03-14T02:46:57;0.15;;;0.10;;
28086;SDS011;15392;48.912;8.380;2023-03-14T02:49:22;0.20;;;0.20;;
28086;SDS011;15392;48.912;8.380;2023-03-14T02:51:50;0.28;;;0.20;;
28086;SDS011;15392;48.912;8.380;2023-03-14T02:54:16;0.30;;;0.20;;
28086;SDS011;15392;48.912;8.380;2023-03-14T02:56:44;0.20;;;0.20;;
28086;SDS011;15392;48.912;8.380;2023-03-14T02:59:10;0.10;;;0.10;;
28086;SDS011;15392;48.912;8.380;2023-03-14T03:01:36;0.10;;;0.10;;
28086;SDS011;15392;48.912;8.380;2023-03-14T03:04:02;0.10;;;0.10;;
28086;SDS011;15392;48.912;8.380;2023-03-14T03:06:28;0.08;;;0.08;;
28086;SDS011;15392;48.912;8.380;2023-03-14T03:08:54;0.13;;;0.13;;
28086;SDS011;15392;48.912;8.380;2023-03-14T03:11:20;0.20;;;0.20;;
28086;SDS011;15392;48.912;8.380;2023-03-14T03:13:46;0.10;;;0.10;;
28086;SDS011;15392;48.912;8.380;2023-03-14T03:16:12;0.10;;;0.10;;
28086;SDS011;15392;48.912;8.380;2023-03-14T03:18:40;0.13;;;0.10;;
28086;SDS011;15392;48.912;8.380;2023-03-14T03:21:06;0.10;;;0.08;;
28086;SDS011;15392;48.912;8.380;2023-03-14T03:23:37;0.10;;;0.10;;
28086;SDS011;15392;48.912;8.380;2023-03-14T03:26:03;0.15;;;0.15;;
28086;SDS011;15392;48.912;8.380;2023-03-14T03:28:29;0.30;;;0.30;;
28086;SDS011;15392;48.912;8.380;2023-03-14T03:30:55;0.20;;;0.20;;
28086;SDS011;15392;48.912;8.380;2023-03-14T03:33:21;0.20;;;0.20;;
28086;SDS011;15392;48.912;8.380;2023-03-14T03:35:49;0.10;;;0.10;;
28086;SDS011;15392;48.912;8.380;2023-03-14T03:38:21;0.15;;;0.13;;
28086;SDS011;15392;48.912;8.380;2023-03-14T03:40:46;0.30;;;0.20;;
28086;SDS011;15392;48.912;8.380;2023-03-14T03:43:12;0.10;;;0.10;;
28086;SDS011;15392;48.912;8.380;2023-03-14T03:45:38;0.30;;;0.20;;
28086;SDS011;15392;48.912;8.380;2023-03-14T03:48:04;0.20;;;0.15;;
28086;SDS011;15392;48.912;8.380;2023-03-14T03:50:30;0.20;;;0.20;;
28086;SDS011;15392;48.912;8.380;2023-03-14T03:52:56;0.28;;;0.20;;
28086;SDS011;15392;48.912;8.380;2023-03-14T03:55:22;0.20;;;0.20;;
28086;SDS011;15392;48.912;8.380;2023-03-14T03:57:47;0.20;;;0.20;;
28086;SDS011;15392;48.912;8.380;2023-03-14T04:00:13;0.30;;;0.20;;
28086;SDS011;15392;48.912;8.380;2023-03-14T04:02:40;0.30;;;0.20;;
28086;SDS011;15392;48.912;8.380;2023-03-14T04:05:06;0.20;;;0.20;;
28086;SDS011;15392;48.912;8.380;2023-03-14T04:07:32;0.40;;;0.40;;
28086;SDS011;15392;48.912;8.380;2023-03-14T04:09:58;0.45;;;0.28;;
28086;SDS011;15392;48.912;8.380;2023-03-14T04:12:24;0.40;;;0.40;;
28086;SDS011;15392;48.912;8.380;2023-03-14T04:14:50;0.25;;;0.25;;
28086;SDS011;15392;48.912;8.380;2023-03-14T04:17:16;0.28;;;0.20;;
28086;SDS011;15392;48.912;8.380;2023-03-14T04:19:41;0.38;;;0.10;;
28086;SDS011;15392;48.912;8.380;2023-03-14T04:22:08;0.20;;;0.20;;
28086;SDS011;15392;48.912;8.380;2023-03-14T04:24:34;0.13;;;0.13;;
28086;SDS011;15392;48.912;8.380;2023-03-14T04:27:00;0.45;;;0.20;;
28086;SDS011;15392;48.912;8.380;2023-03-14T04:29:26;0.10;;;0.10;;
28086;SDS011;15392;48.912;8.380;2023-03-14T04:31:54;0.30;;;0.20;;
28086;SDS011;15392;48.912;8.380;2023-03-14T04:34:20;0.40;;;0.40;;
28086;SDS011;15392;48.912;8.380;2023-03-14T04:36:46;0.25;;;0.25;;
28086;SDS011;15392;48.912;8.380;2023-03-14T04:39:12;0.45;;;0.30;;
28086;SDS011;15392;48.912;8.380;2023-03-14T04:41:38;0.10;;;0.10;;
28086;SDS011;15392;48.912;8.380;2023-03-14T04:44:04;0.20;;;0.20;;
28086;SDS011;15392;48.912;8.380;2023-03-14T04:46:30;0.55;;;0.22;;
28086;SDS011;15392;48.912;8.380;2023-03-14T04:48:55;0.20;;;0.20;;
28086;SDS011;15392;48.912;8.380;2023-03-14T04:51:22;0.20;;;0.10;;
28086;SDS011;15392;48.912;8.380;2023-03-14T04:53:48;0.38;;;0.20;;
28086;SDS011;15392;48.912;8.380;2023-03-14T04:56:14;0.17;;;0.10;;
28086;SDS011;15392;48.912;8.380;2023-03-14T04:58:39;1.20;;;0.10;;
28086;SDS011;15392;48.912;8.380;2023-03-14T05:01:09;0.63;;;0.20;;
28086;SDS011;15392;48.912;8.380;2023-03-14T05:03:35;0.20;;;0.20;;
28086;SDS011;15392;48.912;8.380;2023-03-14T05:06:03;0.35;;;0.20;;
28086;SDS011;15392;48.912;8.380;2023-03-14T05:08:32;0.30;;;0.20;;
28086;SDS011;15392;48.912;8.380;2023-03-14T05:10:58;0.17;;;0.17;;
28086;SDS011;15392;48.912;8.380;2023-03-14T05:13:24;0.15;;;0.13;;
28086;SDS011;15392;48.912;8.380;2023-03-14T05:15:52;0.25;;;0.22;;
28086;SDS011;15392;48.912;8.380;2023-03-14T05:18:20;0.20;;;0.20;;
28086;SDS011;15392;48.912;8.380;2023-03-14T05:20:50;0.20;;;0.10;;
28086;SDS011;15392;48.912;8.380;2023-03-14T05:23:19;0.30;;;0.20;;
28086;SDS011;15392;48.912;8.380;2023-03-14T05:25:48;0.10;;;0.10;;
28086;SDS011;15392;48.912;8.380;2023-03-14T05:28:14;0.15;;;0.15;;
28086;SDS011;15392;48.912;8.380;2023-03-14T05:30:40;0.20;;;0.20;;
28086;SDS011;15392;48.912;8.380;2023-03-14T05:33:08;0.10;;;0.10;;
28086;SDS011;15392;48.912;8.380;2023-03-14T05:35:35;0.20;;;0.10;;
28086;SDS011;15392;48.912;8.380;2023-03-14T05:38:00;0.20;;;0.20;;
28086;SDS011;15392;48.912;8.380;2023-03-14T05:40:27;0.10;;;0.10;;
28086;SDS011;15392;48.912;8.380;2023-03-14T05:43:14;0.17;;;0.00;;
28086;SDS011;15392;48.912;8.380;2023-03-14T05:45:41;0.13;;;0.10;;
28086;SDS011;15392;48.912;8.380;2023-03-14T05:48:16;0.20;;;0.15;;
28086;SDS011;15392;48.912;8.380;2023-03-14T05:50:43;0.20;;;0.13;;
28086;SDS011;15392;48.912;8.380;2023-03-14T05:53:09;0.10;;;0.10;;
28086;SDS011;15392;48.912;8.380;2023-03-14T05:55:41;0.10;;;0.10;;
28086;SDS011;15392;48.912;8.380;2023-03-14T05:58:07;0.10;;;0.10;;
28086;SDS011;15392;48.912;8.380;2023-03-14T06:00:33;0.20;;;0.20;;
28086;SDS011;15392;48.912;8.380;2023-03-14T06:02:59;0.10;;;0.10;;
28086;SDS011;15392;48.912;8.380;2023-03-14T06:05:25;0.10;;;0.10;;
28086;SDS011;15392;48.912;8.380;2023-03-14T06:07:53;0.30;;;0.20;;
28086;SDS011;15392;48.912;8.380;2023-03-14T06:10:19;0.10;;;0.10;;
28086;SDS011;15392;48.912;8.380;2023-03-14T06:12:45;0.20;;;0.10;;
28086;SDS011;15392;48.912;8.380;2023-03-14T06:15:11;0.28;;;0.20;;
28086;SDS011;15392;48.912;8.380;2023-03-14T06:17:43;0.50;;;0.50;;
28086;SDS011;15392;48.912;8.380;2023-03-14T06:20:09;0.60;;;0.60;;
28086;SDS011;15392;48.912;8.380;2023-03-14T06:22:36;0.40;;;0.40;;
28086;SDS011;15392;48.912;8.380;2023-03-14T06:25:08;0.30;;;0.30;;
28086;SDS011;15392;48.912;8.380;2023-03-14T06:27:34;0.30;;;0.30;;
28086;SDS011;15392;48.912;8.380;2023-03-14T06:30:00;1.13;;;0.57;;
28086;SDS011;15392;48.912;8.380;2023-03-14T06:34:57;0.20;;;0.20;;
28086;SDS011;15392;48.912;8.380;2023-03-14T06:37:26;0.20;;;0.20;;
28086;SDS011;15392;48.912;8.380;2023-03-14T06:39:59;0.28;;;0.28;;
28086;SDS011;15392;48.912;8.380;2023-03-14T06:42:25;0.32;;;0.32;;
28086;SDS011;15392;48.912;8.380;2023-03-14T06:44:54;0.20;;;0.20;;
28086;SDS011;15392;48.912;8.380;2023-03-14T06:47:22;0.25;;;0.25;;
28086;SDS011;15392;48.912;8.380;2023-03-14T06:49:51;0.40;;;0.40;;
28086;SDS011;15392;48.912;8.380;2023-03-14T06:52:20;0.20;;;0.20;;
28086;SDS011;15392;48.912;8.380;2023-03-14T06:54:46;0.30;;;0.20;;
28086;SDS011;15392;48.912;8.380;2023-03-14T06:57:12;0.20;;;0.15;;
28086;SDS011;15392;48.912;8.380;2023-03-14T06:59:39;0.20;;;0.20;;
28086;SDS011;15392;48.912;8.380;2023-03-14T07:02:07;1.20;;;0.20;;
28086;SDS011;15392;48.912;8.380;2023-03-14T07:04:36;0.10;;;0.10;;
28086;SDS011;15392;48.912;8.380;2023-03-14T07:07:03;0.10;;;0.10;;
28086;SDS011;15392;48.912;8.380;2023-03-14T07:09:31;0.20;;;0.10;;
28086;SDS011;15392;48.912;8.380;2023-03-14T07:11:58;0.10;;;0.10;;
28086;SDS011;15392;48.912;8.380;2023-03-14T07:14:24;0.10;;;0.10;;
28086;SDS011;15392;48.912;8.380;2023-03-14T07:16:50;0.30;;;0.30;;
28086;SDS011;15392;48.912;8.380;2023-03-14T07:19:16;0.20;;;0.17;;
28086;SDS011;15392;48.912;8.380;2023-03-14T07:21:41;0.20;;;0.20;;
28086;SDS011;15392;48.912;8.380;2023-03-14T07:24:07;0.10;;;0.10;;
28086;SDS011;15392;48.912;8.380;2023-03-14T07:26:33;0.20;;;0.20;;
28086;SDS011;15392;48.912;8.380;2023-03-14T07:28:59;0.10;;;0.10;;
28086;SDS011;15392;48.912;8.380;2023-03-14T07:31:25;0.10;;;0.10;;
28086;SDS011;15392;48.912;8.380;2023-03-14T07:33:51;0.10;;;0.10;;
28086;SDS011;15392;48.912;8.380;2023-03-14T07:36:16;0.15;;;0.15;;
28086;SDS011;15392;48.912;8.380;2023-03-14T07:38:43;0.25;;;0.10;;
28086;SDS011;15392;48.912;8.380;2023-03-14T07:41:09;0.10;;;0.10;;
28086;SDS011;15392;48.912;8.380;2023-03-14T07:43:34;0.10;;;0.10;;
28086;SDS011;15392;48.912;8.380;2023-03-14T07:46:00;0.35;;;0.20;;
28086;SDS011;15392;48.912;8.380;2023-03-14T07:48:26;0.00;;;0.00;;
28086;SDS011;15392;48.912;8.380;2023-03-14T07:50:52;0.20;;;0.20;;
28086;SDS011;15392;48.912;8.380;2023-03-14T07:53:20;0.10;;;0.10;;
28086;SDS011;15392;48.912;8.380;2023-03-14T07:55:47;0.10;;;0.10;;
28086;SDS011;15392;48.912;8.380;2023-03-14T07:58:13;0.10;;;0.10;;
28086;SDS011;15392;48.912;8.380;2023-03-14T08:00:39;0.08;;;0.08;;
28086;SDS011;15392;48.912;8.380;2023-03-14T08:03:05;0.10;;;0.10;;
28086;SDS011;15392;48.912;8.380;2023-03-14T08:05:34;0.00;;;0.00;;
28086;SDS011;15392;48.912;8.380;2023-03-14T08:08:01;0.13;;;0.10;;
28086;SDS011;15392;48.912;8.380;2023-03-14T08:10:27;0.10;;;0.10;;
28086;SDS011;15392;48.912;8.380;2023-03-14T08:12:54;0.10;;;0.10;;
28086;SDS011;15392;48.912;8.380;2023-03-14T08:15:22;0.10;;;0.10;;
28086;SDS011;15392;48.912;8.380;2023-03-14T08:17:49;0.10;;;0.10;;
28086;SDS011;15392;48.912;8.380;2023-03-14T08:20:23;0.17;;;0.13;;
28086;SDS011;15392;48.912;8.380;2023-03-14T08:22:51;0.15;;;0.13;;
28086;SDS011;15392;48.912;8.380;2023-03-14T08:25:17;0.13;;;0.13;;
28086;SDS011;15392;48.912;8.380;2023-03-14T08:27:43;0.10;;;0.10;;
28086;SDS011;15392;48.912;8.380;2023-03-14T08:30:10;0.15;;;0.15;;
28086;SDS011;15392;48.912;8.380;2023-03-14T08:32:42;0.15;;;0.10;;
28086;SDS011;15392;48.912;8.380;2023-03-14T08:35:09;0.00;;;0.00;;
28086;SDS011;15392;48.912;8.380;2023-03-14T08:37:36;0.10;;;0.10;;
28086;SDS011;15392;48.912;8.380;2023-03-14T08:40:03;0.10;;;0.10;;
28086;SDS011;15392;48.912;8.380;2023-03-14T08:42:34;0.10;;;0.10;;
28086;SDS011;15392;48.912;8.380;2023-03-14T08:45:02;0.10;;;0.10;;
28086;SDS011;15392;48.912;8.380;2023-03-14T08:47:29;0.22;;;0.17;;
28086;SDS011;15392;48.912;8.380;2023-03-14T08:49:55;0.10;;;0.10;;
28086;SDS011;15392;48.912;8.380;2023-03-14T08:52:20;0.10;;;0.10;;
28086;SDS011;15392;48.912;8.380;2023-03-14T08:54:47;0.22;;;0.10;;
28086;SDS011;15392;48.912;8.380;2023-03-14T08:57:13;0.10;;;0.10;;
28086;SDS011;15392;48.912;8.380;2023-03-14T08:59:39;0.30;;;0.10;;
28086;SDS011;15392;48.912;8.380;2023-03-14T09:02:05;0.10;;;0.10;;
28086;SDS011;15392;48.912;8.380;2023-03-14T09:04:40;0.20;;;0.00;;
28086;SDS011;15392;48.912;8.380;2023-03-14T09:07:05;0.10;;;0.10;;
28086;SDS011;15392;48.912;8.380;2023-03-14T09:09:34;0.08;;;0.00;;
28086;SDS011;15392;48.912;8.380;2023-03-14T09:12:00;0.15;;;0.15;;
28086;SDS011;15392;48.912;8.380;2023-03-14T09:14:26;0.10;;;0.00;;
28086;SDS011;15392;48.912;8.380;2023-03-14T09:16:52;0.13;;;0.08;;
28086;SDS011;15392;48.912;8.380;2023-03-14T09:19:18;0.10;;;0.10;;
28086;SDS011;15392;48.912;8.380;2023-03-14T09:21:46;0.10;;;0.10;;
28086;SDS011;15392;48.912;8.380;2023-03-14T09:24:12;0.00;;;0.00;;
28086;SDS011;15392;48.912;8.380;2023-03-14T09:26:38;0.15;;;0.10;;
28086;SDS011;15392;48.912;8.380;2023-03-14T09:29:04;0.00;;;0.00;;
28086;SDS011;15392;48.912;8.380;2023-03-14T09:31:30;0.00;;;0.00;;
28086;SDS011;15392;48.912;8.380;2023-03-14T09:33:56;0.00;;;0.00;;
28086;SDS011;15392;48.912;8.380;2023-03-14T09:36:22;0.10;;;0.10;;
28086;SDS011;15392;48.912;8.380;2023-03-14T09:38:48;0.00;;;0.00;;
28086;SDS011;15392;48.912;8.380;2023-03-14T09:41:27;0.10;;;0.10;;
28086;SDS011;15392;48.912;8.380;2023-03-14T09:46:57;0.10;;;0.10;;
28086;SDS011;15392;48.912;8.380;2023-03-14T09:49:34;0.10;;;0.10;;
28086;SDS011;15392;48.912;8.380;2023-03-14T09:52:07;0.10;;;0.00;;
28086;SDS011;15392;48.912;8.380;2023-03-14T09:54:45;0.28;;;0.20;;
28086;SDS011;15392;48.912;8.380;2023-03-14T09:57:20;0.38;;;0.32;;
28086;SDS011;15392;48.912;8.380;2023-03-14T09:59:49;0.40;;;0.40;;
28086;SDS011;15392;48.912;8.380;2023-03-14T10:02:20;0.20;;;0.20;;
28086;SDS011;15392;48.912;8.380;2023-03-14T10:04:47;0.10;;;0.10;;
28086;SDS011;15392;48.912;8.380;2023-03-14T10:07:17;0.20;;;0.05;;
28086;SDS011;15392;48.912;8.380;2023-03-14T10:09:48;0.10;;;0.10;;
28086;SDS011;15392;48.912;8.380;2023-03-14T10:12:16;0.30;;;0.30;;
28086;SDS011;15392;48.912;8.380;2023-03-14T10:14:48;0.15;;;0.15;;
28086;SDS011;15392;48.912;8.380;2023-03-14T10:17:16;0.20;;;0.20;;
28086;SDS011;15392;48.912;8.380;2023-03-14T10:19:54;0.30;;;0.03;;
28086;SDS011;15392;48.912;8.380;2023-03-14T10:22:24;0.00;;;0.00;;
28086;SDS011;15392;48.912;8.380;2023-03-14T10:24:55;0.05;;;0.05;;
28086;SDS011;15392;48.912;8.380;2023-03-14T10:27:33;0.10;;;0.10;;
28086;SDS011;15392;48.912;8.380;2023-03-14T10:30:07;0.10;;;0.00;;
28086;SDS011;15392;48.912;8.380;2023-03-14T10:32:52;0.00;;;0.00;;
28086;SDS011;15392;48.912;8.380;2023-03-14T10:35:19;0.03;;;0.03;;
28086;SDS011;15392;48.912;8.380;2023-03-14T10:37:48;0.10;;;0.00;;
28086;SDS011;15392;48.912;8.380;2023-03-14T10:40:20;0.00;;;0.00;;
28086;SDS011;15392;48.912;8.380;2023-03-14T10:42:52;0.10;;;0.10;;
28086;SDS011;15392;48.912;8.380;2023-03-14T10:45:39;0.05;;;0.05;;
28086;SDS011;15392;48.912;8.380;2023-03-14T10:50:57;0.00;;;0.00;;
28086;SDS011;15392;48.912;8.380;2023-03-14T10:53:39;0.10;;;0.10;;
28086;SDS011;15392;48.912;8.380;2023-03-14T10:56:12;0.13;;;0.10;;
28086;SDS011;15392;48.912;8.380;2023-03-14T10:58:45;0.13;;;0.10;;
28086;SDS011;15392;48.912;8.380;2023-03-14T11:01:38;0.30;;;0.00;;
28086;SDS011;15392;48.912;8.380;2023-03-14T11:07:13;0.00;;;0.00;;
28086;SDS011;15392;48.912;8.380;2023-03-14T11:18:48;0.30;;;0.30;;
28086;SDS011;15392;48.912;8.380;2023-03-14T11:21:36;0.30;;;0.30;;
28086;SDS011;15392;48.912;8.380;2023-03-14T11:29:49;0.20;;;0.13;;
28086;SDS011;15392;48.912;8.380;2023-03-14T11:35:26;0.00;;;0.00;;
28086;SDS011;15392;48.912;8.380;2023-03-14T11:40:59;0.03;;;0.03;;
28086;SDS011;15392;48.912;8.380;2023-03-14T11:43:30;0.93;;;0.93;;
28086;SDS011;15392;48.912;8.380;2023-03-14T11:46:19;0.70;;;0.70;;
28086;SDS011;15392;48.912;8.380;2023-03-14T11:49:06;0.50;;;0.50;;
28086;SDS011;15392;48.912;8.380;2023-03-14T11:51:47;0.40;;;0.40;;
28086;SDS011;15392;48.912;8.380;2023-03-14T11:54:41;0.20;;;0.20;;
28086;SDS011;15392;48.912;8.380;2023-03-14T11:57:18;0.10;;;0.10;;
28086;SDS011;15392;48.912;8.380;2023-03-14T11:59:54;0.20;;;0.10;;
28086;SDS011;15392;48.912;8.380;2023-03-14T12:05:42;0.10;;;0.10;;
28086;SDS011;15392;48.912;8.380;2023-03-14T12:08:29;0.10;;;0.10;;
28086;SDS011;15392;48.912;8.380;2023-03-14T12:11:15;0.30;;;0.20;;
28086;SDS011;15392;48.912;8.380;2023-03-14T12:13:57;0.35;;;0.17;;
28086;SDS011;15392;48.912;8.380;2023-03-14T12:18:50;0.20;;;0.20;;
28086;SDS011;15392;48.912;8.380;2023-03-14T12:21:17;0.10;;;0.10;;
28086;SDS011;15392;48.912;8.380;2023-03-14T12:23:45;0.10;;;0.10;;
28086;SDS011;15392;48.912;8.380;2023-03-14T12:26:27;0.10;;;0.10;;
28086;SDS011;15392;48.912;8.380;2023-03-14T12:29:24;0.10;;;0.10;;
28086;SDS011;15392;48.912;8.380;2023-03-14T12:34:27;0.45;;;0.15;;
28086;SDS011;15392;48.912;8.380;2023-03-14T12:37:06;0.20;;;0.20;;
28086;SDS011;15392;48.912;8.380;2023-03-14T12:45:31;0.20;;;0.10;;
28086;SDS011;15392;48.912;8.380;2023-03-14T12:48:09;0.10;;;0.10;;
28086;SDS011;15392;48.912;8.380;2023-03-14T12:51:00;0.10;;;0.10;;
28086;SDS011;15392;48.912;8.380;2023-03-14T13:02:02;0.20;;;0.20;;
28086;SDS011;15392;48.912;8.380;2023-03-14T13:10:15;0.68;;;0.68;;
28086;SDS011;15392;48.912;8.380;2023-03-14T13:18:16;0.30;;;0.30;;
28086;SDS011;15392;48.912;8.380;2023-03-14T13:20:55;0.30;;;0.30;;
28086;SDS011;15392;48.912;8.380;2023-03-14T13:23:41;0.10;;;0.10;;
28086;SDS011;15392;48.912;8.380;2023-03-14T13:32:00;0.00;;;0.00;;
28086;SDS011;15392;48.912;8.380;2023-03-14T13:34:41;0.20;;;0.17;;
28086;SDS011;15392;48.912;8.380;2023-03-14T13:37:20;0.10;;;0.10;;
28086;SDS011;15392;48.912;8.380;2023-03-14T13:39:49;0.20;;;0.20;;
28086;SDS011;15392;48.912;8.380;2023-03-14T13:42:26;0.10;;;0.10;;
28086;SDS011;15392;48.912;8.380;2023-03-14T13:44:54;0.65;;;0.20;;
28086;SDS011;15392;48.912;8.380;2023-03-14T13:47:22;1.10;;;0.40;;
28086;SDS011;15392;48.912;8.380;2023-03-14T13:49:50;0.10;;;0.10;;
28086;SDS011;15392;48.912;8.380;2023-03-14T13:52:24;0.25;;;0.25;;
28086;SDS011;15392;48.912;8.380;2023-03-14T13:55:00;0.22;;;0.20;;
28086;SDS011;15392;48.912;8.380;2023-03-14T13:57:42;0.43;;;0.30;;
28086;SDS011;15392;48.912;8.380;2023-03-14T14:00:18;0.40;;;0.40;;
28086;SDS011;15392;48.912;8.380;2023-03-14T14:02:54;0.30;;;0.30;;
28086;SDS011;15392;48.912;8.380;2023-03-14T14:05:28;0.20;;;0.20;;
28086;SDS011;15392;48.912;8.380;2023-03-14T14:07:56;0.45;;;0.30;;
28086;SDS011;15392;48.912;8.380;2023-03-14T14:10:22;0.35;;;0.35;;
28086;SDS011;15392;48.912;8.380;2023-03-14T14:12:59;0.57;;;0.38;;
28086;SDS011;15392;48.912;8.380;2023-03-14T14:15:31;0.30;;;0.30;;
28086;SDS011;15392;48.912;8.380;2023-03-14T14:18:03;0.25;;;0.20;;
28086;SDS011;15392;48.912;8.380;2023-03-14T14:20:33;0.30;;;0.30;;
28086;SDS011;15392;48.912;8.380;2023-03-14T14:23:04;0.38;;;0.30;;
28086;SDS011;15392;48.912;8.380;2023-03-14T14:25:44;0.45;;;0.32;;
28086;SDS011;15392;48.912;8.380;2023-03-14T14:28:30;0.45;;;0.40;;
28086;SDS011;15392;48.912;8.380;2023-03-14T14:31:03;0.25;;;0.25;;
28086;SDS011;15392;48.912;8.380;2023-03-14T14:34:00;0.40;;;0.38;;
28086;SDS011;15392;48.912;8.380;2023-03-14T14:39:19;0.30;;;0.30;;
28086;SDS011;15392;48.912;8.380;2023-03-14T14:41:49;0.80;;;0.28;;
28086;SDS011;15392;48.912;8.380;2023-03-14T14:44:27;0.45;;;0.30;;
28086;SDS011;15392;48.912;8.380;2023-03-14T14:47:02;0.45;;;0.35;;
28086;SDS011;15392;48.912;8.380;2023-03-14T14:49:30;0.28;;;0.20;;
28086;SDS011;15392;48.912;8.380;2023-03-14T14:52:08;0.40;;;0.30;;
28086;SDS011;15392;48.912;8.380;2023-03-14T14:54:37;0.50;;;0.50;;
28086;SDS011;15392;48.912;8.380;2023-03-14T14:57:16;0.40;;;0.25;;
28086;SDS011;15392;48.912;8.380;2023-03-14T14:59:50;0.93;;;0.73;;
28086;SDS011;15392;48.912;8.380;2023-03-14T15:02:29;0.63;;;0.40;;
28086;SDS011;15392;48.912;8.380;2023-03-14T15:05:16;0.43;;;0.40;;
28086;SDS011;15392;48.912;8.380;2023-03-14T15:07:43;0.73;;;0.50;;
28086;SDS011;15392;48.912;8.380;2023-03-14T15:10:14;0.40;;;0.40;;
28086;SDS011;15392;48.912;8.380;2023-03-14T15:12:42;0.30;;;0.30;;
28086;SDS011;15392;48.912;8.380;2023-03-14T15:15:08;0.40;;;0.40;;
28086;SDS011;15392;48.912;8.380;2023-03-14T15:17:38;0.65;;;0.57;;
28086;SDS011;15392;48.912;8.380;2023-03-14T15:20:04;0.80;;;0.80;;
28086;SDS011;15392;48.912;8.380;2023-03-14T15:22:35;0.70;;;0.70;;
28086;SDS011;15392;48.912;8.380;2023-03-14T15:25:01;0.50;;;0.50;;
28086;SDS011;15392;48.912;8.380;2023-03-14T15:27:30;1.00;;;0.90;;
28086;SDS011;15392;48.912;8.380;2023-03-14T15:29:57;1.30;;;1.15;;
28086;SDS011;15392;48.912;8.380;2023-03-14T15:32:24;0.80;;;0.80;;
28086;SDS011;15392;48.912;8.380;2023-03-14T15:34:52;0.60;;;0.60;;
28086;SDS011;15392;48.912;8.380;2023-03-14T15:37:20;0.50;;;0.50;;
28086;SDS011;15392;48.912;8.380;2023-03-14T15:39:46;0.40;;;0.40;;
28086;SDS011;15392;48.912;8.380;2023-03-14T15:42:12;1.08;;;0.90;;
28086;SDS011;15392;48.912;8.380;2023-03-14T15:44:38;0.50;;;0.50;;
28086;SDS011;15392;48.912;8.380;2023-03-14T15:47:04;0.50;;;0.50;;
28086;SDS011;15392;48.912;8.380;2023-03-14T15:49:31;0.32;;;0.32;;
28086;SDS011;15392;48.912;8.380;2023-03-14T15:51:57;0.50;;;0.25;;
28086;SDS011;15392;48.912;8.380;2023-03-14T15:54:23;0.47;;;0.43;;
28086;SDS011;15392;48.912;8.380;2023-03-14T15:56:53;0.68;;;0.68;;
28086;SDS011;15392;48.912;8.380;2023-03-14T15:59:21;0.77;;;0.77;;
28086;SDS011;15392;48.912;8.380;2023-03-14T16:01:47;1.33;;;0.60;;
28086;SDS011;15392;48.912;8.380;2023-03-14T16:04:13;0.50;;;0.50;;
28086;SDS011;15392;48.912;8.380;2023-03-14T16:06:43;0.50;;;0.35;;
28086;SDS011;15392;48.912;8.380;2023-03-14T16:09:13;0.30;;;0.30;;
28086;SDS011;15392;48.912;8.380;2023-03-14T16:11:39;0.40;;;0.40;;
28086;SDS011;15392;48.912;8.380;2023-03-14T16:14:05;0.88;;;0.43;;
28086;SDS011;15392;48.912;8.380;2023-03-14T16:16:31;0.60;;;0.30;;
28086;SDS011;15392;48.912;8.380;2023-03-14T16:18:57;0.50;;;0.50;;
28086;SDS011;15392;48.912;8.380;2023-03-14T16:21:23;0.82;;;0.40;;
28086;SDS011;15392;48.912;8.380;2023-03-14T16:23:52;0.32;;;0.32;;
28086;SDS011;15392;48.912;8.380;2023-03-14T16:26:21;0.47;;;0.40;;